NCAR-RAP Real-Time Weather Data

Output produced by METARs form (10 April 2020  07:21 UTC)
found at http://weather.rap.ucar.edu/surface/
 
KYKM 100653Z AUTO 34005KT 10SM CLR 16/M03 A2995 RMK AO2 SLP138 T01561033
KYKM 100553Z AUTO 00000KT 10SM CLR 13/M01 A2995 RMK AO2 SLP142 T01331011 10244 20117 51010
KYKM 100453Z 25007KT 10SM CLR 13/M02 A2995 RMK AO2 SLP143 T01331022
KYKM 100353Z 26005KT 10SM CLR 13/M03 A2995 RMK AO2 SLP142 T01331028
KYKM 100253Z 19003KT 10SM CLR 19/M04 A2992 RMK AO2 SLP133 T01891039 56011
KYKM 100153Z 18004KT 10SM CLR 23/M03 A2993 RMK AO2 SLP136 T02281033
KYKM 100053Z 11004KT 10SM CLR 24/M05 A2994 RMK AO2 SLP137 T02441050
KYKM 092353Z 14005KT 10SM CLR 24/M06 A2996 RMK AO2 SLP145 T02441056 10250 20167 56023
KYKM 092253Z VRB04KT 10SM CLR 24/M06 A2998 RMK AO2 SLP151 T02441056
KYKM 092153Z VRB05KT 10SM CLR 23/M05 A3000 RMK AO2 SLP159 T02331050
KYKM 092053Z VRB05KT 10SM CLR 23/M04 A3003 RMK AO2 SLP169 T02281044 58029
KYKM 091953Z VRB04KT 10SM CLR 22/M04 A3006 RMK AO2 SLP180 T02171044
KYKM 091853Z VRB03KT 10SM CLR 19/M02 A3009 RMK AO2 SLP191 T01941017
KYKM 091753Z 27003KT 10SM CLR 17/M01 A3012 RMK AO2 SLP200 T01671011 10167 20006 58017
KYKM 091653Z 29003KT 10SM CLR 14/M01 A3014 RMK AO2 SLP207 T01391006
KYKM 091553Z 28007KT 10SM CLR 11/M01 A3015 RMK AO2 SLP213 T01111011
KYKM 091453Z 25006KT 10SM CLR 07/M02 A3017 RMK AO2 SLP217 T00721022 56002
KYKM 091353Z 29006KT 10SM CLR 01/M04 A3017 RMK AO2 SLP219 T00111039
KYKM 091253Z 24009KT 10SM CLR 03/M04 A3017 RMK AO2 SLP218 T00331039
KYKM 091153Z AUTO 26007KT 10SM CLR 01/M04 A3017 RMK AO2 SLP220 T00061044 10072 20006 55003
KYKM 091053Z AUTO 29007KT 10SM CLR 02/M04 A3017 RMK AO2 SLP219 T00221039